Wetterdaten: Woche 17.06.24 - 23.06.24 (KW25)
Datum Zeit Temp. I. Temp. A. Feuchte I. Feuchte A. Luftdruck Regen Wind Richtung Sonnenschein Solar Taupunkt Windchill Windböen
17.06.2024 00:00 21,0 °C 14,7 °C 61 % 87 % 1010,4 hPa 0,0 l/m² 0,4 km/h (0 Bft) W 0,00 h 0 W/m² 12,6 °C 14,7 °C 0,9 km/h (0 Bft)
17.06.2024 01:00 21,0 °C 13,3 °C 61 % 90 % 1010,7 hPa 0,0 l/m² 0,8 km/h (0 Bft) W 0,00 h 0 W/m² 11,7 °C 13,3 °C 1,6 km/h (1 Bft)
17.06.2024 02:00 21,0 °C 12,5 °C 60 % 92 % 1011,0 hPa 0,0 l/m² 0,4 km/h (0 Bft) W 0,00 h 0 W/m² 11,2 °C 12,5 °C 1,2 km/h (1 Bft)
17.06.2024 03:00 20,9 °C 12,8 °C 60 % 93 % 1011,0 hPa 0,0 l/m² 0,2 km/h (0 Bft) W 0,00 h 0 W/m² 11,7 °C 12,8 °C 0,4 km/h (0 Bft)
17.06.2024 04:00 20,9 °C 13,1 °C 60 % 93 % 1011,2 hPa 0,0 l/m² 1,2 km/h (1 Bft) W 0,00 h 0 W/m² 12,0 °C 13,1 °C 2,0 km/h (1 Bft)
17.06.2024 05:00 21,0 °C 13,6 °C 61 % 93 % 1011,5 hPa 0,0 l/m² 0,3 km/h (0 Bft) W 0,00 h 17 W/m² 12,5 °C 13,6 °C 1,1 km/h (1 Bft)
17.06.2024 06:00 21,0 °C 14,8 °C 61 % 92 % 1011,5 hPa 0,0 l/m² 0,1 km/h (0 Bft) W 0,92 h 99 W/m² 13,5 °C 14,8 °C 0,4 km/h (0 Bft)
17.06.2024 07:00 21,0 °C 16,4 °C 61 % 86 % 1011,6 hPa 0,0 l/m² 0,1 km/h (0 Bft) W 0,98 h 144 W/m² 14,1 °C 16,4 °C 0,4 km/h (0 Bft)
17.06.2024 08:00 21,0 °C 17,4 °C 60 % 84 % 1011,9 hPa 0,0 l/m² 1,8 km/h (1 Bft) W 1,00 h 112 W/m² 14,6 °C 17,4 °C 3,2 km/h (1 Bft)
17.06.2024 09:00 20,9 °C 17,7 °C 60 % 83 % 1012,1 hPa 0,0 l/m² 6,0 km/h (2 Bft) S-SO 1,02 h 123 W/m² 14,7 °C 17,3 °C 9,5 km/h (2 Bft)
17.06.2024 10:00 20,9 °C 19,3 °C 60 % 78 % 1012,2 hPa 0,0 l/m² 11,0 km/h (2 Bft) S 0,98 h 409 W/m² 15,3 °C 17,7 °C 16,2 km/h (3 Bft)
17.06.2024 11:00 21,0 °C 20,1 °C 60 % 76 % 1012,4 hPa 0,0 l/m² 13,3 km/h (3 Bft) S 1,02 h 445 W/m² 15,8 °C 17,9 °C 19,3 km/h (3 Bft)
17.06.2024 12:00 21,1 °C 20,9 °C 60 % 75 % 1012,6 hPa 0,0 l/m² 11,8 km/h (2 Bft) S 0,98 h 427 W/m² 16,3 °C 19,1 °C 17,5 km/h (3 Bft)
17.06.2024 13:00 21,2 °C 23,0 °C 59 % 67 % 1012,3 hPa 0,0 l/m² 13,2 km/h (3 Bft) S-SW 1,02 h 727 W/m² 16,5 °C 21,3 °C 19,2 km/h (3 Bft)
17.06.2024 14:00 21,3 °C 24,2 °C 59 % 63 % 1011,9 hPa 0,0 l/m² 12,9 km/h (3 Bft) S-SW 1,00 h 665 W/m² 16,6 °C 22,7 °C 18,8 km/h (3 Bft)
17.06.2024 15:00 21,3 °C 24,6 °C 59 % 60 % 1011,7 hPa 0,0 l/m² 14,8 km/h (3 Bft) S 1,00 h 626 W/m² 16,4 °C 22,9 °C 21,9 km/h (4 Bft)
17.06.2024 16:00 21,3 °C 24,6 °C 59 % 59 % 1011,8 hPa 0,0 l/m² 12,9 km/h (3 Bft) SW 1,00 h 399 W/m² 16,0 °C 23,2 °C 18,1 km/h (3 Bft)
17.06.2024 17:00 21,3 °C 22,6 °C 59 % 62 % 1012,3 hPa 0,0 l/m² 7,4 km/h (2 Bft) W-NW 1,00 h 328 W/m² 15,0 °C 22,1 °C 14,1 km/h (3 Bft)
17.06.2024 18:00 21,4 °C 22,9 °C 61 % 62 % 1012,7 hPa 0,0 l/m² 6,3 km/h (2 Bft) W 1,00 h 249 W/m² 15,1 °C 22,6 °C 12,1 km/h (2 Bft)
17.06.2024 19:00 21,4 °C 21,8 °C 61 % 66 % 1012,9 hPa 0,0 l/m² 3,9 km/h (1 Bft) W 1,00 h 109 W/m² 15,1 °C 21,7 °C 7,9 km/h (2 Bft)
17.06.2024 20:00 21,5 °C 20,0 °C 61 % 75 % 1013,2 hPa 0,0 l/m² 1,3 km/h (1 Bft) W-NW 0,18 h 37 W/m² 15,3 °C 20,0 °C 2,7 km/h (1 Bft)
17.06.2024 21:00 21,5 °C 17,8 °C 62 % 84 % 1013,5 hPa 0,0 l/m² 0,5 km/h (0 Bft) W-NW 0,00 h 13 W/m² 15,0 °C 17,8 °C 1,0 km/h (0 Bft)
17.06.2024 22:00 21,5 °C 15,7 °C 62 % 89 % 1014,2 hPa 0,0 l/m² 0,4 km/h (0 Bft) O-NO 0,00 h 0 W/m² 13,8 °C 15,7 °C 0,7 km/h (0 Bft)
17.06.2024 23:00 21,3 °C 14,1 °C 61 % 91 % 1014,5 hPa 0,0 l/m² 0,2 km/h (0 Bft) O-NO 0,00 h 0 W/m² 12,6 °C 14,1 °C 0,6 km/h (0 Bft)
18.06.2024 00:00 21,3 °C 14,0 °C 61 % 92 % 1014,8 hPa 0,0 l/m² 0,6 km/h (0 Bft) O-NO 0,00 h 0 W/m² 12,7 °C 14,0 °C 1,1 km/h (1 Bft)
18.06.2024 01:00 21,2 °C 14,1 °C 61 % 93 % 1015,1 hPa 0,0 l/m² 0,1 km/h (0 Bft) O-NO 0,00 h 0 W/m² 13,0 °C 14,1 °C 0,5 km/h (0 Bft)
18.06.2024 02:00 21,2 °C 14,4 °C 61 % 93 % 1015,0 hPa 0,0 l/m² 0,0 km/h (0 Bft) O-NO 0,00 h 0 W/m² 13,2 °C 14,4 °C 0,0 km/h (0 Bft)
18.06.2024 03:00 21,2 °C 13,4 °C 61 % 93 % 1014,9 hPa 0,0 l/m² 0,0 km/h (0 Bft) O-NO 0,00 h 0 W/m² 12,2 °C 13,4 °C 0,0 km/h (0 Bft)
18.06.2024 04:00 21,1 °C 12,4 °C 61 % 94 % 1014,9 hPa 0,0 l/m² 0,0 km/h (0 Bft) O-NO 0,00 h 5 W/m² 11,4 °C 12,4 °C 0,0 km/h (0 Bft)
18.06.2024 05:00 21,2 °C 11,8 °C 61 % 94 % 1015,0 hPa 0,0 l/m² 0,0 km/h (0 Bft) O-NO 0,00 h 20 W/m² 11,0 °C 11,8 °C 0,0 km/h (0 Bft)
18.06.2024 06:00 21,2 °C 13,0 °C 61 % 95 % 1015,3 hPa 0,0 l/m² 0,0 km/h (0 Bft) O-NO 0,87 h 119 W/m² 12,2 °C 13,0 °C 0,0 km/h (0 Bft)
18.06.2024 07:00 21,2 °C 16,2 °C 61 % 91 % 1015,2 hPa 0,0 l/m² 0,7 km/h (0 Bft) O-NO 1,02 h 238 W/m² 14,8 °C 16,2 °C 1,1 km/h (0 Bft)
18.06.2024 08:00 21,2 °C 19,8 °C 61 % 79 % 1015,5 hPa 0,0 l/m² 7,6 km/h (2 Bft) S-SW 0,98 h 362 W/m² 16,2 °C 19,3 °C 11,1 km/h (2 Bft)
18.06.2024 09:00 21,4 °C 21,7 °C 60 % 75 % 1015,5 hPa 0,0 l/m² 4,5 km/h (1 Bft) S-SO 1,00 h 591 W/m² 17,0 °C 21,7 °C 8,1 km/h (2 Bft)
18.06.2024 10:00 21,4 °C 23,5 °C 60 % 68 % 1015,4 hPa 0,0 l/m² 5,3 km/h (1 Bft) S 1,00 h 751 W/m² 17,3 °C 23,4 °C 9,5 km/h (2 Bft)
18.06.2024 11:00 21,5 °C 25,1 °C 60 % 63 % 1015,0 hPa 0,0 l/m² 5,8 km/h (2 Bft) W-SW 1,00 h 857 W/m² 17,4 °C 24,9 °C 10,2 km/h (2 Bft)
18.06.2024 12:00 21,6 °C 26,6 °C 60 % 57 % 1014,6 hPa 0,0 l/m² 5,6 km/h (2 Bft) S 1,02 h 1045 W/m² 17,3 °C 26,5 °C 10,4 km/h (2 Bft)
18.06.2024 13:00 21,7 °C 26,7 °C 59 % 55 % 1014,1 hPa 0,0 l/m² 6,9 km/h (2 Bft) S 1,00 h 740 W/m² 16,9 °C 26,4 °C 12,2 km/h (2 Bft)
18.06.2024 14:00 21,8 °C 27,5 °C 59 % 53 % 1013,3 hPa 0,0 l/m² 7,3 km/h (2 Bft) S-SO 1,00 h 803 W/m² 17,0 °C 27,2 °C 12,9 km/h (3 Bft)
18.06.2024 15:00 21,8 °C 27,9 °C 59 % 51 % 1012,3 hPa 0,0 l/m² 7,4 km/h (2 Bft) SO 1,00 h 625 W/m² 16,9 °C 27,7 °C 12,0 km/h (2 Bft)
18.06.2024 16:00 21,8 °C 25,8 °C 59 % 58 % 1011,4 hPa 0,0 l/m² 6,9 km/h (2 Bft) O 0,67 h 152 W/m² 17,0 °C 25,6 °C 11,2 km/h (2 Bft)
18.06.2024 17:00 21,8 °C 20,5 °C 60 % 83 % 1011,8 hPa 9,8 l/m² 12,0 km/h (2 Bft) O-NO 0,38 h 137 W/m² 17,3 °C 18,9 °C 19,8 km/h (4 Bft)
18.06.2024 18:00 21,8 °C 20,4 °C 61 % 89 % 1011,0 hPa 0,0 l/m² 4,8 km/h (1 Bft) O-NO 0,98 h 220 W/m² 18,5 °C 20,2 °C 9,1 km/h (2 Bft)
18.06.2024 19:00 21,8 °C 20,3 °C 62 % 91 % 1010,3 hPa 0,0 l/m² 2,1 km/h (1 Bft) O-NO 0,93 h 81 W/m² 18,7 °C 20,3 °C 3,9 km/h (1 Bft)
18.06.2024 20:00 21,9 °C 19,8 °C 63 % 91 % 1009,7 hPa 1,4 l/m² 3,0 km/h (1 Bft) O 0,00 h 27 W/m² 18,3 °C 19,7 °C 4,7 km/h (1 Bft)
18.06.2024 21:00 21,9 °C 19,1 °C 63 % 93 % 1010,3 hPa 4,6 l/m² 6,6 km/h (2 Bft) S-SO 0,00 h 8 W/m² 18,0 °C 18,1 °C 9,9 km/h (2 Bft)
18.06.2024 22:00 22,0 °C 18,6 °C 63 % 94 % 1010,3 hPa 0,6 l/m² 1,1 km/h (1 Bft) W-NW 0,00 h 0 W/m² 17,6 °C 18,6 °C 3,1 km/h (1 Bft)
18.06.2024 23:00 21,8 °C 17,9 °C 63 % 94 % 1010,4 hPa 0,0 l/m² 0,0 km/h (0 Bft) NW 0,00 h 0 W/m² 16,9 °C 17,9 °C 0,0 km/h (0 Bft)
19.06.2024 00:00 21,7 °C 17,2 °C 63 % 95 % 1010,9 hPa 0,2 l/m² 0,0 km/h (0 Bft) NW 0,00 h 0 W/m² 16,4 °C 17,2 °C 0,0 km/h (0 Bft)
19.06.2024 01:00 21,7 °C 16,9 °C 63 % 95 % 1010,8 hPa 0,0 l/m² 0,3 km/h (0 Bft) NW 0,00 h 0 W/m² 16,1 °C 16,9 °C 1,4 km/h (1 Bft)
19.06.2024 02:00 21,7 °C 16,6 °C 63 % 95 % 1011,1 hPa 0,0 l/m² 1,8 km/h (1 Bft) W 0,00 h 0 W/m² 15,7 °C 16,5 °C 4,7 km/h (1 Bft)
19.06.2024 03:00 21,7 °C 16,1 °C 63 % 95 % 1011,6 hPa 0,0 l/m² 4,5 km/h (1 Bft) W-NW 0,00 h 0 W/m² 15,3 °C 15,9 °C 11,4 km/h (2 Bft)
19.06.2024 04:00 21,7 °C 15,7 °C 63 % 95 % 1011,7 hPa 0,0 l/m² 0,9 km/h (0 Bft) W-SW 0,00 h 0 W/m² 14,9 °C 15,7 °C 2,7 km/h (1 Bft)
19.06.2024 05:00 21,7 °C 15,5 °C 63 % 95 % 1011,8 hPa 0,0 l/m² 0,4 km/h (0 Bft) W 0,00 h 15 W/m² 14,7 °C 15,5 °C 2,6 km/h (1 Bft)
19.06.2024 06:00 21,7 °C 15,7 °C 63 % 95 % 1012,4 hPa 0,0 l/m² 1,7 km/h (1 Bft) W 0,18 h 44 W/m² 14,9 °C 15,7 °C 5,4 km/h (1 Bft)
19.06.2024 07:00 21,7 °C 16,0 °C 63 % 94 % 1013,0 hPa 0,0 l/m² 4,2 km/h (1 Bft) W-NW 0,95 h 78 W/m² 15,0 °C 15,9 °C 11,1 km/h (2 Bft)
19.06.2024 08:00 21,7 °C 15,6 °C 63 % 92 % 1013,8 hPa 0,0 l/m² 8,0 km/h (2 Bft) N-NW 0,87 h 93 W/m² 14,4 °C 14,6 °C 14,0 km/h (3 Bft)
19.06.2024 09:00 21,7 °C 15,7 °C 62 % 91 % 1014,4 hPa 0,0 l/m² 8,3 km/h (2 Bft) N-NW 1,00 h 112 W/m² 14,2 °C 14,6 °C 13,7 km/h (3 Bft)
19.06.2024 10:00 21,7 °C 16,6 °C 62 % 88 % 1014,8 hPa 0,0 l/m² 8,7 km/h (2 Bft) N-NW 1,00 h 277 W/m² 14,6 °C 15,4 °C 14,0 km/h (3 Bft)
19.06.2024 11:00 21,8 °C 17,0 °C 62 % 86 % 1015,4 hPa 0,0 l/m² 7,8 km/h (2 Bft) N-NW 1,00 h 176 W/m² 14,6 °C 16,3 °C 12,9 km/h (3 Bft)
19.06.2024 12:00 21,7 °C 17,0 °C 62 % 86 % 1015,8 hPa 0,0 l/m² 6,8 km/h (2 Bft) NW 1,00 h 151 W/m² 14,6 °C 16,6 °C 11,1 km/h (2 Bft)
19.06.2024 13:00 21,7 °C 16,5 °C 62 % 89 % 1016,3 hPa 0,2 l/m² 5,8 km/h (2 Bft) NW 1,00 h 109 W/m² 14,7 °C 16,2 °C 10,3 km/h (2 Bft)
19.06.2024 14:00 21,7 °C 15,8 °C 62 % 92 % 1017,0 hPa 1,6 l/m² 5,6 km/h (2 Bft) NW 1,00 h 115 W/m² 14,6 °C 15,5 °C 10,1 km/h (2 Bft)
19.06.2024 15:00 21,8 °C 15,8 °C 64 % 93 % 1017,6 hPa 0,4 l/m² 3,2 km/h (1 Bft) NW 0,93 h 113 W/m² 14,6 °C 15,8 °C 6,4 km/h (2 Bft)
19.06.2024 16:00 22,0 °C 16,0 °C 65 % 92 % 1018,0 hPa 0,6 l/m² 1,3 km/h (1 Bft) W-NW 1,07 h 126 W/m² 14,6 °C 16,0 °C 3,7 km/h (1 Bft)
19.06.2024 17:00 21,8 °C 15,8 °C 65 % 93 % 1018,5 hPa 0,4 l/m² 1,0 km/h (0 Bft) W-SW 0,40 h 48 W/m² 14,7 °C 15,8 °C 2,9 km/h (1 Bft)
19.06.2024 18:00 21,9 °C 16,0 °C 65 % 94 % 1019,0 hPa 0,2 l/m² 0,0 km/h (0 Bft) W 0,77 h 79 W/m² 15,0 °C 16,0 °C 0,3 km/h (0 Bft)
19.06.2024 19:00 22,1 °C 16,2 °C 65 % 92 % 1019,3 hPa 0,0 l/m² 0,0 km/h (0 Bft) W 0,97 h 66 W/m² 14,9 °C 16,2 °C 0,2 km/h (0 Bft)
19.06.2024 20:00 21,9 °C 16,1 °C 64 % 93 % 1019,9 hPa 0,0 l/m² 0,0 km/h (0 Bft) W 0,53 h 48 W/m² 14,9 °C 16,1 °C 0,1 km/h (0 Bft)
19.06.2024 21:00 21,7 °C 14,7 °C 64 % 93 % 1020,5 hPa 0,0 l/m² 0,0 km/h (0 Bft) W 0,00 h 9 W/m² 13,6 °C 14,7 °C 0,1 km/h (0 Bft)
19.06.2024 22:00 21,7 °C 13,1 °C 65 % 94 % 1021,3 hPa 0,0 l/m² 0,0 km/h (0 Bft) W 0,00 h 0 W/m² 12,2 °C 13,1 °C 0,0 km/h (0 Bft)
19.06.2024 23:00 21,6 °C 12,1 °C 66 % 95 % 1021,7 hPa 0,0 l/m² 0,0 km/h (0 Bft) W 0,00 h 0 W/m² 11,3 °C 12,1 °C 0,0 km/h (0 Bft)
20.06.2024 00:00 21,6 °C 11,1 °C 66 % 95 % 1021,6 hPa 0,0 l/m² 0,0 km/h (0 Bft) W 0,00 h 0 W/m² 10,3 °C 11,1 °C 0,0 km/h (0 Bft)
20.06.2024 01:00 21,5 °C 10,6 °C 66 % 95 % 1021,8 hPa 0,0 l/m² 0,0 km/h (0 Bft) W 0,00 h 0 W/m² 9,9 °C 10,6 °C 0,0 km/h (0 Bft)
20.06.2024 02:00 21,4 °C 10,2 °C 66 % 96 % 1021,9 hPa 0,0 l/m² 0,0 km/h (0 Bft) W 0,00 h 0 W/m² 9,6 °C 10,2 °C 0,0 km/h (0 Bft)
20.06.2024 03:00 21,4 °C 9,3 °C 66 % 96 % 1022,3 hPa 0,0 l/m² 0,1 km/h (0 Bft) W 0,00 h 0 W/m² 8,7 °C 9,3 °C 0,3 km/h (0 Bft)
20.06.2024 04:00 21,4 °C 9,2 °C 65 % 96 % 1022,6 hPa 0,0 l/m² 0,1 km/h (0 Bft) W 0,00 h 5 W/m² 8,6 °C 9,2 °C 0,3 km/h (0 Bft)
20.06.2024 05:00 21,3 °C 9,4 °C 65 % 96 % 1023,0 hPa 0,0 l/m² 0,4 km/h (0 Bft) W 0,00 h 30 W/m² 8,8 °C 9,4 °C 1,3 km/h (1 Bft)
20.06.2024 06:00 21,3 °C 10,9 °C 65 % 96 % 1023,5 hPa 0,0 l/m² 0,0 km/h (0 Bft) W 0,98 h 114 W/m² 10,3 °C 10,9 °C 0,2 km/h (0 Bft)
20.06.2024 07:00 21,3 °C 12,6 °C 64 % 97 % 1023,4 hPa 0,0 l/m² 0,0 km/h (0 Bft) W 1,00 h 231 W/m² 12,0 °C 12,6 °C 0,0 km/h (0 Bft)
20.06.2024 08:00 21,3 °C 14,7 °C 63 % 90 % 1023,1 hPa 0,0 l/m² 4,0 km/h (1 Bft) NO 1,00 h 322 W/m² 13,1 °C 14,6 °C 6,6 km/h (2 Bft)
20.06.2024 09:00 21,4 °C 16,7 °C 63 % 84 % 1022,9 hPa 0,0 l/m² 9,2 km/h (2 Bft) O 1,00 h 573 W/m² 14,0 °C 15,3 °C 12,9 km/h (3 Bft)
20.06.2024 10:00 21,4 °C 17,5 °C 63 % 83 % 1022,8 hPa 0,0 l/m² 7,5 km/h (2 Bft) O 1,00 h 550 W/m² 14,6 °C 16,8 °C 11,4 km/h (2 Bft)
20.06.2024 11:00 21,4 °C 17,0 °C 63 % 85 % 1022,6 hPa 0,0 l/m² 7,5 km/h (2 Bft) O-SO 1,00 h 408 W/m² 14,5 °C 16,3 °C 11,1 km/h (2 Bft)
20.06.2024 12:00 21,5 °C 19,0 °C 62 % 80 % 1022,4 hPa 0,0 l/m² 3,9 km/h (1 Bft) O 1,00 h 834 W/m² 15,4 °C 18,9 °C 6,8 km/h (2 Bft)
20.06.2024 13:00 21,6 °C 21,5 °C 62 % 67 % 1022,0 hPa 0,0 l/m² 6,2 km/h (2 Bft) O 1,00 h 783 W/m² 15,1 °C 21,1 °C 9,6 km/h (2 Bft)
20.06.2024 14:00 21,6 °C 21,1 °C 62 % 64 % 1021,3 hPa 0,0 l/m² 7,3 km/h (2 Bft) O 1,00 h 336 W/m² 14,0 °C 20,6 °C 11,1 km/h (2 Bft)
20.06.2024 15:00 21,6 °C 21,8 °C 62 % 63 % 1020,5 hPa 0,0 l/m² 8,6 km/h (2 Bft) O 1,00 h 470 W/m² 14,5 °C 21,0 °C 12,3 km/h (2 Bft)
20.06.2024 16:00 21,6 °C 22,5 °C 62 % 64 % 1019,6 hPa 0,0 l/m² 10,8 km/h (2 Bft) O 1,00 h 460 W/m² 15,3 °C 21,2 °C 15,2 km/h (3 Bft)
20.06.2024 17:00 21,6 °C 21,7 °C 62 % 68 % 1019,2 hPa 0,0 l/m² 7,5 km/h (2 Bft) O 1,00 h 214 W/m² 15,5 °C 21,2 °C 11,3 km/h (2 Bft)
20.06.2024 18:00 21,6 °C 21,4 °C 62 % 69 % 1018,7 hPa 0,0 l/m² 5,1 km/h (1 Bft) O 1,00 h 144 W/m² 15,4 °C 21,3 °C 8,2 km/h (2 Bft)
20.06.2024 19:00 21,6 °C 20,7 °C 62 % 73 % 1018,5 hPa 0,0 l/m² 3,4 km/h (1 Bft) O-NO 1,00 h 72 W/m² 15,7 °C 20,7 °C 5,2 km/h (1 Bft)
20.06.2024 20:00 21,6 °C 19,6 °C 62 % 81 % 1017,3 hPa 0,0 l/m² 4,1 km/h (1 Bft) O 0,02 h 24 W/m² 16,2 °C 19,5 °C 5,9 km/h (2 Bft)
20.06.2024 21:00 21,5 °C 18,6 °C 63 % 83 % 1016,9 hPa 0,0 l/m² 0,7 km/h (0 Bft) O-NO 0,00 h 7 W/m² 15,7 °C 18,6 °C 1,2 km/h (1 Bft)
20.06.2024 22:00 21,8 °C 17,3 °C 65 % 87 % 1017,0 hPa 0,0 l/m² 0,5 km/h (0 Bft) O-NO 0,00 h 0 W/m² 15,1 °C 17,3 °C 1,0 km/h (0 Bft)
20.06.2024 23:00 21,7 °C 15,8 °C 64 % 91 % 1017,2 hPa 0,0 l/m² 0,0 km/h (0 Bft) W-NW 0,00 h 0 W/m² 14,3 °C 15,8 °C 0,2 km/h (0 Bft)
21.06.2024 00:00 21,5 °C 15,0 °C 64 % 93 % 1016,9 hPa 0,0 l/m² 0,0 km/h (0 Bft) W-NW 0,00 h 0 W/m² 13,9 °C 15,0 °C 0,1 km/h (0 Bft)
21.06.2024 01:00 21,4 °C 15,2 °C 64 % 94 % 1016,6 hPa 0,0 l/m² 0,0 km/h (0 Bft) W-NW 0,00 h 0 W/m² 14,2 °C 15,2 °C 0,0 km/h (0 Bft)
21.06.2024 02:00 21,4 °C 15,4 °C 64 % 94 % 1016,0 hPa 0,0 l/m² 0,0 km/h (0 Bft) W-NW 0,00 h 0 W/m² 14,5 °C 15,4 °C 0,0 km/h (0 Bft)
21.06.2024 03:00 21,4 °C 15,7 °C 63 % 95 % 1015,5 hPa 0,0 l/m² 0,0 km/h (0 Bft) W-NW 0,00 h 0 W/m² 14,9 °C 15,7 °C 0,0 km/h (0 Bft)
21.06.2024 04:00 21,4 °C 15,1 °C 63 % 94 % 1015,2 hPa 0,0 l/m² 0,0 km/h (0 Bft) N 0,00 h 5 W/m² 14,2 °C 15,1 °C 0,0 km/h (0 Bft)
21.06.2024 05:00 21,4 °C 14,7 °C 63 % 95 % 1014,8 hPa 0,0 l/m² 0,0 km/h (0 Bft) N-NW 0,00 h 27 W/m² 13,9 °C 14,7 °C 0,0 km/h (0 Bft)
21.06.2024 06:00 21,4 °C 15,8 °C 63 % 95 % 1014,5 hPa 0,0 l/m² 0,0 km/h (0 Bft) S-SW 0,78 h 111 W/m² 15,1 °C 15,8 °C 0,0 km/h (0 Bft)
21.06.2024 07:00 21,7 °C 17,9 °C 65 % 92 % 1014,3 hPa 0,0 l/m² 0,0 km/h (0 Bft) O 1,00 h 178 W/m² 16,6 °C 17,9 °C 0,0 km/h (0 Bft)
21.06.2024 08:00 21,7 °C 20,5 °C 65 % 85 % 1014,4 hPa 0,0 l/m² 0,0 km/h (0 Bft) O 1,00 h 273 W/m² 17,9 °C 20,5 °C 0,0 km/h (0 Bft)
21.06.2024 09:00 21,9 °C 23,1 °C 65 % 79 % 1013,9 hPa 0,0 l/m² 0,3 km/h (0 Bft) O-NO 1,00 h 543 W/m² 19,2 °C 23,1 °C 0,5 km/h (0 Bft)
21.06.2024 10:00 22,0 °C 25,4 °C 66 % 73 % 1013,1 hPa 0,0 l/m² 6,9 km/h (2 Bft) O-NO 1,00 h 605 W/m² 20,3 °C 25,1 °C 10,9 km/h (2 Bft)
21.06.2024 11:00 21,9 °C 25,4 °C 66 % 73 % 1013,1 hPa 0,0 l/m² 7,8 km/h (2 Bft) O-SO 1,00 h 327 W/m² 20,2 °C 25,0 °C 11,4 km/h (2 Bft)
21.06.2024 12:00 21,8 °C 24,3 °C 66 % 80 % 1012,9 hPa 0,0 l/m² 1,9 km/h (1 Bft) S-SO 1,00 h 118 W/m² 20,7 °C 24,3 °C 3,3 km/h (1 Bft)
21.06.2024 13:00 21,8 °C 23,4 °C 65 % 89 % 1012,3 hPa 0,8 l/m² 0,5 km/h (0 Bft) S-SO 0,72 h 74 W/m² 21,4 °C 23,4 °C 1,2 km/h (1 Bft)
21.06.2024 14:00 21,8 °C 20,7 °C 66 % 92 % 1012,8 hPa 14,4 l/m² 5,8 km/h (2 Bft) S 0,25 h 36 W/m² 19,4 °C 20,1 °C 9,6 km/h (2 Bft)
21.06.2024 15:00 21,9 °C 20,9 °C 66 % 95 % 1011,8 hPa 1,2 l/m² 0,8 km/h (0 Bft) O-NO 0,87 h 259 W/m² 20,1 °C 20,9 °C 2,0 km/h (1 Bft)
21.06.2024 16:00 22,0 °C 22,2 °C 66 % 93 % 1010,4 hPa 0,0 l/m² 7,1 km/h (2 Bft) O-NO 1,00 h 241 W/m² 21,1 °C 21,7 °C 12,1 km/h (2 Bft)
21.06.2024 17:00 21,9 °C 21,8 °C 67 % 94 % 1010,0 hPa 0,0 l/m² 1,3 km/h (1 Bft) O 1,00 h 121 W/m² 20,8 °C 21,8 °C 2,5 km/h (1 Bft)
21.06.2024 18:00 22,0 °C 22,7 °C 68 % 92 % 1009,5 hPa 0,0 l/m² 2,0 km/h (1 Bft) W-SW 1,00 h 200 W/m² 21,3 °C 22,7 °C 3,7 km/h (1 Bft)
21.06.2024 19:00 22,2 °C 22,7 °C 69 % 91 % 1008,7 hPa 0,0 l/m² 2,4 km/h (1 Bft) O-NO 1,00 h 79 W/m² 21,1 °C 22,7 °C 3,9 km/h (1 Bft)
21.06.2024 20:00 22,3 °C 22,4 °C 70 % 91 % 1008,8 hPa 0,0 l/m² 2,8 km/h (1 Bft) O-NO 0,40 h 55 W/m² 20,9 °C 22,4 °C 4,5 km/h (1 Bft)
21.06.2024 21:00 22,2 °C 21,1 °C 69 % 93 % 1008,6 hPa 0,0 l/m² 1,2 km/h (1 Bft) O-SO 0,00 h 19 W/m² 20,0 °C 21,1 °C 2,2 km/h (1 Bft)
21.06.2024 22:00 22,1 °C 20,4 °C 69 % 94 % 1008,5 hPa 0,0 l/m² 4,2 km/h (1 Bft) S-SO 0,00 h 0 W/m² 19,5 °C 20,3 °C 6,6 km/h (2 Bft)
21.06.2024 23:00 22,0 °C 20,0 °C 69 % 94 % 1008,5 hPa 0,0 l/m² 4,2 km/h (1 Bft) S-SW 0,00 h 0 W/m² 19,0 °C 19,9 °C 7,1 km/h (2 Bft)
22.06.2024 00:00 21,9 °C 18,6 °C 68 % 90 % 1009,1 hPa 0,0 l/m² 10,3 km/h (2 Bft) S-SW 0,00 h 0 W/m² 16,8 °C 17,0 °C 14,8 km/h (3 Bft)
22.06.2024 01:00 21,9 °C 18,4 °C 68 % 85 % 1009,7 hPa 0,0 l/m² 11,9 km/h (2 Bft) S-SW 0,00 h 0 W/m² 15,8 °C 16,3 °C 16,0 km/h (3 Bft)
22.06.2024 02:00 22,0 °C 18,4 °C 68 % 87 % 1009,7 hPa 0,0 l/m² 7,8 km/h (2 Bft) SW 0,00 h 0 W/m² 16,2 °C 17,6 °C 11,1 km/h (2 Bft)
22.06.2024 03:00 21,9 °C 17,6 °C 67 % 90 % 1009,0 hPa 0,0 l/m² 3,4 km/h (1 Bft) SW 0,00 h 0 W/m² 15,9 °C 17,6 °C 5,2 km/h (1 Bft)
22.06.2024 04:00 21,9 °C 17,7 °C 67 % 91 % 1008,9 hPa 0,0 l/m² 2,7 km/h (1 Bft) W-SW 0,00 h 0 W/m² 16,2 °C 17,7 °C 4,6 km/h (1 Bft)
22.06.2024 05:00 21,9 °C 17,2 °C 67 % 93 % 1008,9 hPa 2,0 l/m² 6,6 km/h (2 Bft) SW 0,00 h 5 W/m² 16,0 °C 16,7 °C 9,7 km/h (2 Bft)
22.06.2024 06:00 21,9 °C 16,1 °C 67 % 93 % 1009,8 hPa 3,0 l/m² 9,2 km/h (2 Bft) W 0,00 h 5 W/m² 15,1 °C 14,6 °C 17,2 km/h (3 Bft)
22.06.2024 07:00 21,9 °C 15,2 °C 66 % 94 % 1010,6 hPa 1,0 l/m² 5,0 km/h (1 Bft) W-SW 0,30 h 40 W/m² 14,2 °C 15,0 °C 9,6 km/h (2 Bft)
22.06.2024 08:00 21,8 °C 15,1 °C 66 % 94 % 1011,4 hPa 0,0 l/m² 10,4 km/h (2 Bft) SW 0,88 h 115 W/m² 14,1 °C 12,9 °C 15,8 km/h (3 Bft)
22.06.2024 09:00 21,8 °C 15,9 °C 66 % 88 % 1011,9 hPa 0,0 l/m² 16,1 km/h (3 Bft) W-SW 1,00 h 401 W/m² 13,8 °C 12,0 °C 23,4 km/h (4 Bft)
22.06.2024 10:00 21,9 °C 18,7 °C 66 % 77 % 1012,2 hPa 0,0 l/m² 15,9 km/h (3 Bft) SW 1,00 h 764 W/m² 14,5 °C 15,6 °C 23,1 km/h (4 Bft)
22.06.2024 11:00 21,9 °C 20,7 °C 66 % 68 % 1012,2 hPa 0,0 l/m² 16,7 km/h (3 Bft) SW 1,00 h 878 W/m² 14,7 °C 17,8 °C 23,8 km/h (4 Bft)
22.06.2024 12:00 21,9 °C 22,0 °C 65 % 61 % 1012,2 hPa 0,0 l/m² 17,6 km/h (3 Bft) SW 1,00 h 930 W/m² 14,2 °C 19,3 °C 24,7 km/h (4 Bft)
22.06.2024 13:00 21,9 °C 22,9 °C 65 % 59 % 1012,1 hPa 0,0 l/m² 15,9 km/h (3 Bft) SW 1,00 h 911 W/m² 14,5 °C 20,7 °C 22,3 km/h (4 Bft)
22.06.2024 14:00 21,9 °C 23,6 °C 65 % 55 % 1011,9 hPa 0,0 l/m² 14,8 km/h (3 Bft) SW 1,00 h 882 W/m² 14,0 °C 21,7 °C 21,0 km/h (4 Bft)
22.06.2024 15:00 21,9 °C 24,3 °C 65 % 51 % 1011,8 hPa 0,0 l/m² 14,4 km/h (3 Bft) W-SW 1,00 h 798 W/m² 13,5 °C 22,6 °C 21,9 km/h (4 Bft)
22.06.2024 16:00 21,9 °C 24,4 °C 65 % 52 % 1011,5 hPa 0,0 l/m² 13,6 km/h (3 Bft) SW 1,00 h 534 W/m² 13,7 °C 22,8 °C 19,8 km/h (4 Bft)
22.06.2024 17:00 22,0 °C 24,0 °C 65 % 57 % 1011,3 hPa 0,0 l/m² 16,8 km/h (3 Bft) SW 1,00 h 425 W/m² 15,1 °C 21,9 °C 23,8 km/h (4 Bft)
22.06.2024 18:00 22,0 °C 22,6 °C 65 % 62 % 1011,4 hPa 0,0 l/m² 15,1 km/h (3 Bft) SW 1,00 h 161 W/m² 15,0 °C 20,5 °C 21,7 km/h (4 Bft)
22.06.2024 19:00 22,0 °C 21,7 °C 65 % 70 % 1011,8 hPa 0,0 l/m² 7,4 km/h (2 Bft) W-SW 1,00 h 80 W/m² 15,9 °C 21,2 °C 12,1 km/h (2 Bft)
22.06.2024 20:00 22,0 °C 20,4 °C 65 % 78 % 1012,1 hPa 0,0 l/m² 1,7 km/h (1 Bft) W-SW 0,07 h 35 W/m² 16,3 °C 20,4 °C 3,5 km/h (1 Bft)
22.06.2024 21:00 22,0 °C 18,7 °C 65 % 84 % 1012,6 hPa 0,0 l/m² 0,6 km/h (0 Bft) W-SW 0,00 h 11 W/m² 15,9 °C 18,7 °C 1,6 km/h (1 Bft)
22.06.2024 22:00 22,0 °C 17,9 °C 65 % 85 % 1013,3 hPa 0,0 l/m² 1,2 km/h (1 Bft) W 0,00 h 0 W/m² 15,4 °C 17,9 °C 2,9 km/h (1 Bft)
22.06.2024 23:00 21,9 °C 16,6 °C 65 % 89 % 1014,1 hPa 0,0 l/m² 0,0 km/h (0 Bft) W-NW 0,00 h 0 W/m² 14,8 °C 16,6 °C 0,2 km/h (0 Bft)
23.06.2024 00:00 22,0 °C 16,3 °C 65 % 92 % 1014,5 hPa 0,0 l/m² 0,0 km/h (0 Bft) W-NW 0,00 h 0 W/m² 14,9 °C 16,3 °C 0,0 km/h (0 Bft)
23.06.2024 01:00 22,0 °C 15,4 °C 65 % 90 % 1014,8 hPa 0,0 l/m² 0,0 km/h (0 Bft) NW 0,00 h 0 W/m² 13,9 °C 15,4 °C 0,0 km/h (0 Bft)
23.06.2024 02:00 22,0 °C 13,6 °C 65 % 92 % 1015,1 hPa 0,0 l/m² 0,0 km/h (0 Bft) NW 0,00 h 0 W/m² 12,4 °C 13,6 °C 0,0 km/h (0 Bft)
23.06.2024 03:00 22,0 °C 12,6 °C 64 % 93 % 1015,3 hPa 0,0 l/m² 0,0 km/h (0 Bft) NW 0,00 h 0 W/m² 11,6 °C 12,6 °C 0,0 km/h (0 Bft)
23.06.2024 04:00 22,0 °C 12,4 °C 64 % 94 % 1015,8 hPa 0,0 l/m² 0,0 km/h (0 Bft) NW 0,00 h 5 W/m² 11,4 °C 12,4 °C 0,0 km/h (0 Bft)
23.06.2024 05:00 21,9 °C 12,1 °C 64 % 94 % 1016,3 hPa 0,0 l/m² 0,0 km/h (0 Bft) NW 0,03 h 21 W/m² 11,2 °C 12,1 °C 0,0 km/h (0 Bft)
23.06.2024 06:00 21,9 °C 13,5 °C 64 % 95 % 1016,9 hPa 0,0 l/m² 0,0 km/h (0 Bft) N-NO 1,00 h 114 W/m² 12,7 °C 13,5 °C 0,0 km/h (0 Bft)
23.06.2024 07:00 21,9 °C 16,2 °C 64 % 89 % 1017,4 hPa 0,0 l/m² 0,0 km/h (0 Bft) NW 1,00 h 234 W/m² 14,4 °C 16,2 °C 0,0 km/h (0 Bft)
23.06.2024 08:00 22,0 °C 19,0 °C 64 % 81 % 1017,9 hPa 0,0 l/m² 3,4 km/h (1 Bft) NW 1,00 h 360 W/m² 15,6 °C 19,0 °C 7,3 km/h (2 Bft)
23.06.2024 09:00 22,0 °C 19,9 °C 64 % 75 % 1018,6 hPa 0,0 l/m² 5,4 km/h (2 Bft) NW 0,98 h 392 W/m² 15,4 °C 19,8 °C 11,2 km/h (2 Bft)
23.06.2024 10:00 22,0 °C 21,2 °C 64 % 70 % 1018,7 hPa 0,0 l/m² 7,7 km/h (2 Bft) NW 1,00 h 692 W/m² 15,4 °C 20,6 °C 14,1 km/h (3 Bft)
23.06.2024 11:00 22,0 °C 22,2 °C 64 % 66 % 1018,3 hPa 0,0 l/m² 6,7 km/h (2 Bft) W 1,00 h 852 W/m² 15,5 °C 21,8 °C 13,3 km/h (3 Bft)
23.06.2024 12:00 22,1 °C 22,7 °C 64 % 65 % 1018,2 hPa 0,0 l/m² 7,1 km/h (2 Bft) W-SW 1,00 h 550 W/m² 15,7 °C 22,2 °C 12,4 km/h (2 Bft)
23.06.2024 13:00 22,1 °C 22,4 °C 64 % 67 % 1018,0 hPa 0,0 l/m² 6,1 km/h (2 Bft) NW 1,02 h 310 W/m² 15,8 °C 22,1 °C 11,5 km/h (2 Bft)
23.06.2024 14:00 22,1 °C 23,4 °C 64 % 63 % 1017,8 hPa 0,0 l/m² 5,8 km/h (2 Bft) W 1,00 h 501 W/m² 16,0 °C 23,2 °C 11,6 km/h (2 Bft)
23.06.2024 15:00 22,1 °C 24,0 °C 64 % 61 % 1017,9 hPa 0,0 l/m² 5,3 km/h (1 Bft) W 1,00 h 535 W/m² 15,9 °C 23,9 °C 11,3 km/h (2 Bft)
23.06.2024 16:00 22,1 °C 23,9 °C 64 % 60 % 1017,9 hPa 0,0 l/m² 9,0 km/h (2 Bft) NW 1,00 h 416 W/m² 15,6 °C 23,2 °C 15,0 km/h (3 Bft)
23.06.2024 17:00 22,1 °C 23,2 °C 64 % 60 % 1018,0 hPa 0,0 l/m² 7,1 km/h (2 Bft) W-NW 1,00 h 242 W/m² 15,1 °C 22,9 °C 12,7 km/h (3 Bft)
23.06.2024 18:00 22,1 °C 22,7 °C 64 % 62 % 1018,2 hPa 0,0 l/m² 4,5 km/h (1 Bft) W-NW 1,00 h 152 W/m² 14,9 °C 22,6 °C 9,5 km/h (2 Bft)
23.06.2024 19:00 22,1 °C 21,9 °C 64 % 66 % 1018,6 hPa 0,0 l/m² 3,5 km/h (1 Bft) NW 0,90 h 70 W/m² 15,3 °C 21,9 °C 6,0 km/h (2 Bft)
23.06.2024 20:00 22,2 °C 20,8 °C 64 % 74 % 1018,9 hPa 0,0 l/m² 0,9 km/h (0 Bft) N 0,00 h 31 W/m² 15,9 °C 20,8 °C 1,9 km/h (1 Bft)
23.06.2024 21:00 22,2 °C 19,0 °C 64 % 82 % 1019,4 hPa 0,0 l/m² 0,0 km/h (0 Bft) N 0,00 h 12 W/m² 15,8 °C 19,0 °C 0,0 km/h (0 Bft)
23.06.2024 22:00 22,2 °C 16,1 °C 64 % 89 % 1019,7 hPa 0,0 l/m² 0,0 km/h (0 Bft) N 0,00 h 0 W/m² 14,2 °C 16,1 °C 0,0 km/h (0 Bft)
23.06.2024 23:00 22,2 °C 14,8 °C 64 % 92 % 1019,9 hPa 0,0 l/m² 0,0 km/h (0 Bft) N 0,00 h 0 W/m² 13,5 °C 14,8 °C 0,0 km/h (0 Bft)
Min-Datum _ 17.06.24 20.06.24 18.06.24 22.06.24 21.06.24 - 23.06.24 - - - 20.06.24 20.06.24 23.06.24
_ Min-Zeit 11:00 04:55 17:01 15:22 22:40 - 23:01 - - - 04:55 04:55 23:01
Minimum _ 20,9 °C 8,8 °C 59 % 48 % 1008,2 hPa - 0,0 km/h (0 Bft) - - - 8,2 °C 8,8 °C 0,0 km/h (0 Bft)
Max-Datum _ 21.06.24 18.06.24 21.06.24 20.06.24 20.06.24 21.06.24 18.06.24 - 19.06.24 17.06.24 21.06.24 18.06.24 18.06.24
_ Max-Zeit 21:00 15:03 21:26 07:02 06:41 14:15 17:22 - 16:01 13:10 16:01 15:01 17:21
Maximum _ 22,3 °C 28,8 °C 70 % 97 % 1023,9 hPa 14,4 l/m² 34,5 km/h
O-NO (5 Bft)
- 0,10 h 1208 W/m² 22,0 °C 28,6 °C 57,9 km/h
NO (7 Bft)
Durchschnitt _ 21,7 °C 18,3 °C 63 % 83 % 1014,8 hPa #42,4 l/m² 4,3 km/h (1 Bft) W #92:49 h 206 W/m² 15,1 °C 17,9 °C 7,0 km/h (2 Bft)
© 2009 Mathias Hoßbach